Skye — PG5597 — position and weather

sailwx.info

Track history (hours):
 
Tides and Currents Weather Stations Pressure Air Temp Water Temp Dewpoint Dewpoint Depression Visibility Wind Speed Wind Dir Waves Ship Positions

Skye

Last reported at 2017-Oct-09 11:16 UTC. Time now 2017-Dec-11 19:10 UTC.
Position N 35°54' E 014°31'.
Warning: this ship's position is months out of date.

Length 16 m.

Type: Sailing vessel. MMSI: 244820910.

Date/timePositionNaut miles runAvg speedWind from/ knotsBaromVisibWave heightAir tempDewpointWater temp
2017-Oct-09 11:16N 35°54' E 014°31'1 5.0
2017-Oct-09 11:00N 35°55' E 014°31'3 6.5
2017-Oct-09 10:30N 35°57' E 014°28'2 0.1
2017-Oct-08 14:12N 35°57' E 014°26'0 0.0
2017-Oct-08 14:00N 35°57' E 014°26'0 0.0
2017-Oct-08 13:30N 35°57' E 014°26'0 0.0
2017-Oct-08 13:00N 35°57' E 014°26'0 0.0
2017-Oct-08 12:30N 35°57' E 014°26'0 0.0
2017-Oct-08 12:00N 35°57' E 014°26'0 0.1
2017-Oct-08 11:13N 35°58' E 014°26'0 1.5
2017-Oct-08 11:00N 35°58' E 014°26'1 2.1
2017-Oct-08 10:31N 35°58' E 014°27'3 5.9
2017-Oct-08 10:00N 35°56' E 014°30'  
2017-Oct-04 19:22N 35°54' E 014°31'2 5.5
2017-Oct-04 19:00N 35°56' E 014°30'3 6.1
2017-Oct-04 18:29N 35°58' E 014°27'3 6.2
2017-Oct-04 18:00N 35°59' E 014°24'3 6.2
2017-Oct-04 17:30N 36°00' E 014°20'3 6.5
2017-Oct-04 16:59N 36°00' E 014°16'3 6.2
2017-Oct-04 16:27N 36°02' E 014°12'3 5.9
2017-Oct-04 16:00N 36°03' E 014°09'3 6.6
2017-Oct-04 15:29N 36°05' E 014°06'3 5.3
2017-Oct-04 15:00N 36°07' E 014°04'3 5.5
2017-Oct-04 14:30N 36°10' E 014°02'3 5.5
2017-Oct-04 14:00N 36°12' E 014°00'3 5.6
2017-Oct-04 13:31N 36°14' E 013°58'2 4.7
2017-Oct-04 13:00N 36°16' E 013°57'2 4.3
2017-Oct-04 12:30N 36°18' E 013°56'  
2017-Oct-02 08:19N 39°04' E 009°21'3 6.7
2017-Oct-02 07:52N 39°06' E 009°18'2 6.8
2017-Oct-02 07:30N 39°07' E 009°15'3 6.6
2017-Oct-02 06:59N 39°08' E 009°11'3 6.4
2017-Oct-02 06:30N 39°10' E 009°08'3 0.4
2017-Oct-02 00:15N 39°13' E 009°06'1 2.2
2017-Oct-01 23:59N 39°13' E 009°07'2 4.6
2017-Oct-01 23:29N 39°10' E 009°07'3 6.7
2017-Oct-01 22:59N 39°07' E 009°07'3 6.6
2017-Oct-01 22:30N 39°04' E 009°07'3 6.7
2017-Oct-01 22:00N 39°00' E 009°07'  
Track history (hours):
 
Tides and Currents Weather Stations Pressure Air Temp Water Temp Dewpoint Dewpoint Depression Visibility Wind Speed Wind Dir Waves Ship Positions

Skye

Last reported at 2017-Oct-09 11:16 UTC. Time now 2017-Dec-11 19:10 UTC.
Position N 35°54' E 014°31'.
Warning: this ship's position is months out of date.

Length 16 m.

Type: Sailing vessel. MMSI: 244820910.

Date/timePositionNaut miles runAvg speedWind from/ knotsBaromVisibWave heightAir tempDewpointWater temp
2017-Oct-09 11:16N 35°54' E 014°31'1 5.0
2017-Oct-09 11:00N 35°55' E 014°31'3 6.5
2017-Oct-09 10:30N 35°57' E 014°28'2 0.1
2017-Oct-08 14:12N 35°57' E 014°26'0 0.0
2017-Oct-08 14:00N 35°57' E 014°26'0 0.0
2017-Oct-08 13:30N 35°57' E 014°26'0 0.0
2017-Oct-08 13:00N 35°57' E 014°26'0 0.0
2017-Oct-08 12:30N 35°57' E 014°26'0 0.0
2017-Oct-08 12:00N 35°57' E 014°26'0 0.1
2017-Oct-08 11:13N 35°58' E 014°26'0 1.5
2017-Oct-08 11:00N 35°58' E 014°26'1 2.1
2017-Oct-08 10:31N 35°58' E 014°27'3 5.9
2017-Oct-08 10:00N 35°56' E 014°30'  
2017-Oct-04 19:22N 35°54' E 014°31'2 5.5
2017-Oct-04 19:00N 35°56' E 014°30'3 6.1
2017-Oct-04 18:29N 35°58' E 014°27'3 6.2
2017-Oct-04 18:00N 35°59' E 014°24'3 6.2
2017-Oct-04 17:30N 36°00' E 014°20'3 6.5
2017-Oct-04 16:59N 36°00' E 014°16'3 6.2
2017-Oct-04 16:27N 36°02' E 014°12'3 5.9
2017-Oct-04 16:00N 36°03' E 014°09'3 6.6
2017-Oct-04 15:29N 36°05' E 014°06'3 5.3
2017-Oct-04 15:00N 36°07' E 014°04'3 5.5
2017-Oct-04 14:30N 36°10' E 014°02'3 5.5
2017-Oct-04 14:00N 36°12' E 014°00'3 5.6
2017-Oct-04 13:31N 36°14' E 013°58'2 4.7
2017-Oct-04 13:00N 36°16' E 013°57'2 4.3
2017-Oct-04 12:30N 36°18' E 013°56'  
2017-Oct-02 08:19N 39°04' E 009°21'3 6.7
2017-Oct-02 07:52N 39°06' E 009°18'2 6.8
2017-Oct-02 07:30N 39°07' E 009°15'3 6.6
2017-Oct-02 06:59N 39°08' E 009°11'3 6.4
2017-Oct-02 06:30N 39°10' E 009°08'3 0.4
2017-Oct-02 00:15N 39°13' E 009°06'1 2.2
2017-Oct-01 23:59N 39°13' E 009°07'2 4.6
2017-Oct-01 23:29N 39°10' E 009°07'3 6.7
2017-Oct-01 22:59N 39°07' E 009°07'3 6.6
2017-Oct-01 22:30N 39°04' E 009°07'3 6.7
2017-Oct-01 22:00N 39°00' E 009°07'  

Dump ship's entire track history